createdAt,value
2023-01-07T00:02:21.818Z,5.40
2023-01-07T00:04:50.524Z,5.40
2023-01-07T00:07:19.761Z,5.30
2023-01-07T00:09:47.587Z,5.10
2023-01-07T00:12:15.419Z,5.20
2023-01-07T00:14:43.258Z,5.20
2023-01-07T00:17:11.127Z,5.10
2023-01-07T00:19:38.955Z,5.10
2023-01-07T00:22:06.775Z,5.20
2023-01-07T00:24:35.965Z,5.10
2023-01-07T00:27:03.788Z,5.10
2023-01-07T00:29:31.616Z,5.30
2023-01-07T00:31:59.475Z,5.50
2023-01-07T00:34:27.320Z,5.40
2023-01-07T00:37:16.377Z,5.20
2023-01-07T00:39:45.553Z,4.90
2023-01-07T00:42:31.100Z,5.00
2023-01-07T00:44:58.945Z,5.10
2023-01-07T00:47:26.769Z,5.00
2023-01-07T00:49:54.599Z,4.90
2023-01-07T00:52:22.523Z,4.90
2023-01-07T00:54:51.705Z,4.80
2023-01-07T00:57:19.519Z,4.70
2023-01-07T00:59:47.376Z,4.50
2023-01-07T01:02:15.275Z,4.60
2023-01-07T01:04:43.143Z,4.50
2023-01-07T01:07:10.966Z,4.50
2023-01-07T01:09:38.805Z,4.40
2023-01-07T01:12:08.227Z,4.40
2023-01-07T01:14:36.077Z,4.40
2023-01-07T01:17:03.912Z,4.40
2023-01-07T01:19:31.753Z,4.30
2023-01-07T01:21:59.626Z,4.20
2023-01-07T01:24:27.475Z,4.20
2023-01-07T01:26:55.556Z,4.20
2023-01-07T01:29:24.841Z,4.20
2023-01-07T01:31:52.799Z,4.10
2023-01-07T01:34:20.887Z,4.20
2023-01-07T01:36:48.702Z,4.00
2023-01-07T01:39:16.529Z,3.90
2023-01-07T01:41:44.373Z,3.70
2023-01-07T01:44:39.642Z,3.70
2023-01-07T01:47:09.446Z,3.80
2023-01-07T01:49:39.968Z,3.60
2023-01-07T01:52:10.195Z,3.60
2023-01-07T01:54:38.059Z,3.60
2023-01-07T01:57:06.382Z,3.50
2023-01-07T01:59:36.401Z,3.40
2023-01-07T02:02:05.746Z,3.30
2023-01-07T02:04:33.701Z,3.40
2023-01-07T02:07:04.040Z,3.30
2023-01-07T02:09:31.949Z,3.40
2023-01-07T02:12:04.164Z,3.60
2023-01-07T02:14:43.909Z,3.30
2023-01-07T02:17:16.664Z,3.40
2023-01-07T02:20:04.572Z,3.40
2023-01-07T02:22:48.540Z,3.30
2023-01-07T02:25:29.496Z,3.40
2023-01-07T02:28:08.762Z,3.00
2023-01-07T02:30:59.895Z,2.80
2023-01-07T02:33:45.837Z,2.80
2023-01-07T02:36:32.011Z,2.80
2023-01-07T02:39:13.377Z,2.80
2023-01-07T02:41:45.966Z,2.70
2023-01-07T02:44:16.464Z,2.70
2023-01-07T02:46:45.579Z,2.70
2023-01-07T02:49:24.025Z,2.60
2023-01-07T02:51:51.914Z,2.40
2023-01-07T02:54:21.625Z,2.40
2023-01-07T02:57:00.943Z,2.50
2023-01-07T02:59:56.888Z,2.60
2023-01-07T03:02:51.604Z,2.60
2023-01-07T03:05:30.118Z,2.50
2023-01-07T03:08:05.870Z,2.60
2023-01-07T03:10:37.600Z,2.60
2023-01-07T03:13:06.049Z,2.60
2023-01-07T03:15:37.439Z,2.20
2023-01-07T03:18:06.843Z,2.10
2023-01-07T03:20:37.807Z,2.30
2023-01-07T03:23:06.686Z,2.50
2023-01-07T03:25:35.697Z,2.60
2023-01-07T03:28:03.865Z,2.40
2023-01-07T03:30:31.734Z,2.70
2023-01-07T03:33:01.754Z,2.30
2023-01-07T03:35:29.651Z,2.10
2023-01-07T03:37:59.048Z,2.10
2023-01-07T03:40:26.840Z,2.10
2023-01-07T03:42:54.175Z,1.90
2023-01-07T03:45:24.278Z,1.90
2023-01-07T03:47:52.849Z,1.90
2023-01-07T03:50:20.812Z,2.10
2023-01-07T03:52:49.375Z,2.20
2023-01-07T03:55:18.651Z,1.90
2023-01-07T03:57:46.463Z,1.70
2023-01-07T04:00:15.195Z,1.80
2023-01-07T04:02:43.184Z,1.70
2023-01-07T04:05:11.028Z,1.60
2023-01-07T04:07:38.864Z,1.70
2023-01-07T04:10:07.541Z,1.70
2023-01-07T04:12:36.684Z,1.70
2023-01-07T04:15:04.736Z,1.40
2023-01-07T04:17:32.554Z,1.50
2023-01-07T04:20:00.580Z,1.30
2023-01-07T04:22:28.403Z,1.40
2023-01-07T04:24:56.240Z,1.40
2023-01-07T04:27:24.051Z,1.40
2023-01-07T04:29:53.165Z,1.50
2023-01-07T04:32:20.984Z,1.70
2023-01-07T04:34:49.091Z,1.70
2023-01-07T04:37:16.959Z,1.40
2023-01-07T04:39:44.804Z,1.20
2023-01-07T04:42:12.616Z,1.10
2023-01-07T04:44:40.437Z,1.00
2023-01-07T04:47:09.650Z,1.00
2023-01-07T04:49:37.424Z,1.20
2023-01-07T04:52:05.479Z,1.20
2023-01-07T04:54:33.295Z,1.10
2023-01-07T04:57:01.201Z,1.10
2023-01-07T04:59:29.003Z,1.10
2023-01-07T05:01:57.035Z,1.10
2023-01-07T05:04:26.257Z,1.00
2023-01-07T05:06:54.089Z,1.00
2023-01-07T05:09:21.893Z,1.00
2023-01-07T05:11:49.707Z,0.90
2023-01-07T05:14:17.492Z,0.90
2023-01-07T05:16:45.403Z,1.00
2023-01-07T05:19:13.513Z,0.90
2023-01-07T05:21:42.658Z,0.90
2023-01-07T05:24:10.445Z,0.80
2023-01-07T05:26:38.248Z,0.90
2023-01-07T05:29:06.209Z,1.00
2023-01-07T05:31:34.039Z,1.00
2023-01-07T05:34:01.827Z,1.00
2023-01-07T05:36:29.628Z,0.90
2023-01-07T05:38:58.770Z,0.80
2023-01-07T05:41:26.585Z,0.80
2023-01-07T05:43:54.404Z,0.80
2023-01-07T05:46:22.247Z,1.70
2023-01-07T05:48:50.193Z,1.20
2023-01-07T05:51:18.353Z,1.00
2023-01-07T05:53:46.136Z,0.90
2023-01-07T05:56:15.237Z,0.90
2023-01-07T05:58:43.005Z,0.80
2023-01-07T06:01:10.873Z,0.80
2023-01-07T06:03:38.782Z,1.00
2023-01-07T06:06:07.953Z,0.80
2023-01-07T06:08:35.819Z,0.70
2023-01-07T06:11:03.651Z,0.80
2023-01-07T06:13:32.810Z,0.80
2023-01-07T06:16:01.245Z,0.90
2023-01-07T06:18:29.145Z,0.90
2023-01-07T06:20:56.962Z,0.60
2023-01-07T06:23:25.261Z,0.30
2023-01-07T06:25:53.060Z,0.40
2023-01-07T06:28:20.869Z,0.70
2023-01-07T06:30:50.119Z,0.50
2023-01-07T06:33:18.127Z,0.50
2023-01-07T06:35:45.998Z,0.70
2023-01-07T06:38:13.869Z,1.30
2023-01-07T06:40:41.693Z,1.00
2023-01-07T06:43:09.816Z,1.10
2023-01-07T06:45:38.053Z,0.90
2023-01-07T06:48:08.347Z,1.10
2023-01-07T06:50:36.158Z,1.00
2023-01-07T06:53:04.525Z,0.90
2023-01-07T06:55:32.436Z,1.00
2023-01-07T06:58:00.372Z,1.00
2023-01-07T07:00:28.211Z,1.10
2023-01-07T07:02:56.031Z,1.30
2023-01-07T07:05:25.192Z,1.20
2023-01-07T07:07:52.962Z,0.90
2023-01-07T07:10:20.745Z,1.00
2023-01-07T07:12:48.543Z,1.00
2023-01-07T07:15:16.454Z,0.90
2023-01-07T07:17:44.242Z,0.80
2023-01-07T07:20:12.602Z,0.50
2023-01-07T07:22:45.069Z,0.40
2023-01-07T07:25:12.994Z,0.40
2023-01-07T07:27:40.792Z,0.40
2023-01-07T07:30:09.738Z,0.40
2023-01-07T07:32:37.558Z,0.40
2023-01-07T07:35:05.879Z,0.40
2023-01-07T07:37:33.670Z,0.40
2023-01-07T07:40:02.830Z,0.40
2023-01-07T07:42:30.648Z,0.40
2023-01-07T07:44:58.454Z,0.40
2023-01-07T07:47:26.274Z,1.70
2023-01-07T07:49:54.074Z,1.50
2023-01-07T07:52:21.849Z,1.40
2023-01-07T07:54:49.641Z,1.10
2023-01-07T07:57:18.771Z,1.20
2023-01-07T07:59:46.579Z,0.80
2023-01-07T08:02:14.676Z,1.00
2023-01-07T08:04:42.556Z,0.90
2023-01-07T08:07:10.791Z,1.00
2023-01-07T08:09:38.625Z,0.80
2023-01-07T08:12:07.111Z,0.80
2023-01-07T08:14:37.167Z,0.90
2023-01-07T08:17:04.972Z,0.90
2023-01-07T08:19:32.776Z,0.90
2023-01-07T08:22:00.575Z,1.10
2023-01-07T08:24:28.402Z,1.40
2023-01-07T08:26:56.768Z,1.70
2023-01-07T08:29:24.808Z,1.80
2023-01-07T08:31:54.150Z,1.90
2023-01-07T08:34:23.372Z,2.00
2023-01-07T08:36:52.118Z,2.30
2023-01-07T08:39:19.925Z,2.40
2023-01-07T08:41:47.718Z,2.80
2023-01-07T08:44:15.539Z,2.80
2023-01-07T08:46:43.381Z,3.50
2023-01-07T08:49:12.661Z,3.90
2023-01-07T08:51:40.473Z,4.50
2023-01-07T08:54:08.257Z,4.80
2023-01-07T08:56:36.058Z,5.10
2023-01-07T08:59:03.863Z,5.30
2023-01-07T09:01:31.816Z,5.30
2023-01-07T09:03:59.711Z,5.50
2023-01-07T09:06:28.961Z,5.50
2023-01-07T09:08:56.770Z,6.10
2023-01-07T09:11:24.579Z,5.90
2023-01-07T09:13:52.378Z,5.80
2023-01-07T09:16:20.295Z,5.80
2023-01-07T09:18:48.120Z,6.00
2023-01-07T09:21:15.966Z,5.90
2023-01-07T09:23:45.114Z,5.90
2023-01-07T09:26:12.910Z,5.80
2023-01-07T09:28:40.690Z,5.60
2023-01-07T09:31:08.521Z,5.20
2023-01-07T09:33:36.317Z,5.50
2023-01-07T09:36:04.218Z,5.40
2023-01-07T09:38:32.968Z,5.40
2023-01-07T09:41:02.114Z,5.50
2023-01-07T09:43:59.399Z,5.40
2023-01-07T09:46:20.413Z,5.20
2023-01-07T09:48:49.874Z,5.30
2023-01-07T09:51:20.372Z,5.20
2023-01-07T09:53:49.424Z,5.20
2023-01-07T09:56:21.138Z,5.90
2023-01-07T09:58:48.989Z,6.20
2023-01-07T10:01:22.542Z,6.30
2023-01-07T10:03:59.125Z,6.40
2023-01-07T10:06:42.766Z,6.70
2023-01-07T10:09:17.566Z,7.30
2023-01-07T10:11:53.064Z,9.10
2023-01-07T10:14:44.339Z,9.30
2023-01-07T10:17:19.533Z,9.60
2023-01-07T10:19:50.850Z,8.80
2023-01-07T10:22:21.548Z,8.50
2023-01-07T10:24:51.894Z,8.50
2023-01-07T10:27:33.296Z,8.60
2023-01-07T10:30:03.088Z,9.10
2023-01-07T10:32:32.806Z,9.60
2023-01-07T10:35:01.073Z,9.80
2023-01-07T10:37:29.521Z,10.00
2023-01-07T10:40:04.727Z,9.80
2023-01-07T10:42:35.958Z,10.10
2023-01-07T10:45:27.936Z,10.20
2023-01-07T10:48:04.574Z,10.10
2023-01-07T10:50:46.182Z,9.90
2023-01-07T10:53:19.478Z,10.70
2023-01-07T10:55:52.446Z,10.20
2023-01-07T10:58:22.738Z,10.60
2023-01-07T11:00:50.640Z,10.80
2023-01-07T11:03:20.750Z,11.00
2023-01-07T11:05:49.781Z,10.70
2023-01-07T11:08:23.841Z,11.50
2023-01-07T11:10:51.663Z,10.80
2023-01-07T11:13:23.587Z,10.50
2023-01-07T11:15:53.264Z,10.70
2023-01-07T11:18:22.096Z,10.70
2023-01-07T11:20:50.740Z,10.40
2023-01-07T11:23:29.576Z,10.60
2023-01-07T11:26:09.819Z,10.70
2023-01-07T11:28:42.275Z,10.90
2023-01-07T11:31:10.133Z,10.80
2023-01-07T11:34:01.786Z,10.70
2023-01-07T11:36:40.159Z,10.90
2023-01-07T11:39:10.468Z,10.80
2023-01-07T11:41:38.265Z,10.80
2023-01-07T11:44:16.208Z,10.70
2023-01-07T11:46:45.156Z,10.90
2023-01-07T11:49:21.525Z,11.20
2023-01-07T11:51:49.759Z,11.40
2023-01-07T11:54:21.074Z,11.20
2023-01-07T11:56:48.913Z,11.10
2023-01-07T11:59:26.948Z,11.50
2023-01-07T12:01:55.803Z,11.30
2023-01-07T12:04:24.693Z,11.50
2023-01-07T12:06:53.106Z,11.10
2023-01-07T12:09:28.193Z,11.20
2023-01-07T12:11:57.598Z,11.60
2023-01-07T12:14:28.785Z,11.60
2023-01-07T12:16:57.751Z,11.50
2023-01-07T12:19:36.837Z,11.60
2023-01-07T12:22:11.653Z,11.90
2023-01-07T12:24:56.033Z,12.20
2023-01-07T12:27:29.833Z,12.40
2023-01-07T12:30:11.132Z,11.90
2023-01-07T12:32:45.393Z,12.00
2023-01-07T12:35:18.103Z,12.20
2023-01-07T12:37:49.003Z,12.00
2023-01-07T12:40:21.078Z,12.10
2023-01-07T12:42:51.421Z,12.10
2023-01-07T12:45:23.981Z,12.00
2023-01-07T12:47:53.631Z,12.00
2023-01-07T12:50:25.081Z,12.20
2023-01-07T12:52:53.948Z,12.00
2023-01-07T12:55:23.245Z,12.30
2023-01-07T12:57:59.238Z,12.20
2023-01-07T13:00:29.053Z,11.70
2023-01-07T13:02:59.564Z,12.10
2023-01-07T13:05:28.800Z,12.40
2023-01-07T13:07:57.972Z,12.50
2023-01-07T13:10:26.671Z,12.20
2023-01-07T13:12:56.868Z,11.90
2023-01-07T13:15:27.484Z,11.90
2023-01-07T13:17:57.347Z,12.10
2023-01-07T13:20:45.639Z,12.10
2023-01-07T13:23:17.950Z,12.00
2023-01-07T13:25:52.729Z,11.70
2023-01-07T13:28:47.382Z,11.90
2023-01-07T13:31:22.774Z,11.80
2023-01-07T13:33:54.555Z,11.60
2023-01-07T13:36:26.999Z,11.70
2023-01-07T13:39:30.318Z,11.50
2023-01-07T13:42:05.475Z,11.40
2023-01-07T13:44:51.374Z,11.10
2023-01-07T13:47:20.688Z,10.80
2023-01-07T13:49:56.874Z,10.80
2023-01-07T13:52:25.951Z,10.80
2023-01-07T13:54:56.182Z,10.60
2023-01-07T13:57:43.173Z,10.50
2023-01-07T14:00:38.705Z,10.40
2023-01-07T14:03:11.851Z,10.20
2023-01-07T14:05:41.043Z,10.20
2023-01-07T14:08:08.862Z,10.10
2023-01-07T14:10:37.845Z,10.20
2023-01-07T14:13:21.522Z,10.00
2023-01-07T14:16:01.131Z,9.60
2023-01-07T14:18:57.450Z,9.40
2023-01-07T14:21:57.501Z,9.30
2023-01-07T14:24:43.245Z,9.30
2023-01-07T14:27:35.382Z,9.00
2023-01-07T14:30:16.004Z,8.90
2023-01-07T14:32:44.634Z,9.00
2023-01-07T14:35:23.288Z,9.10
2023-01-07T14:37:52.469Z,8.90
2023-01-07T14:40:53.938Z,8.90
2023-01-07T14:43:47.148Z,8.90
2023-01-07T14:46:43.866Z,8.90
2023-01-07T14:49:31.202Z,8.70
2023-01-07T14:52:00.490Z,8.80
2023-01-07T14:54:59.924Z,8.60
2023-01-07T14:57:31.425Z,8.50
2023-01-07T15:00:22.757Z,8.60
2023-01-07T15:03:20.859Z,8.50
2023-01-07T15:06:11.727Z,8.30
2023-01-07T15:09:06.203Z,8.40
2023-01-07T15:11:53.008Z,8.30
2023-01-07T15:14:47.274Z,8.50
2023-01-07T15:17:15.712Z,8.50
2023-01-07T15:19:43.859Z,8.50
2023-01-07T15:22:28.518Z,8.20
2023-01-07T15:24:58.923Z,8.10
2023-01-07T15:27:32.259Z,7.90
2023-01-07T15:30:02.936Z,7.90
2023-01-07T15:32:38.005Z,7.60
2023-01-07T15:35:09.748Z,7.50
2023-01-07T15:37:37.660Z,7.40
2023-01-07T15:40:06.381Z,7.50
2023-01-07T15:42:36.119Z,7.40
2023-01-07T15:45:04.151Z,7.10
2023-01-07T15:47:37.585Z,7.10
2023-01-07T15:50:24.096Z,7.10
2023-01-07T15:52:52.734Z,7.00
2023-01-07T15:55:23.954Z,7.00
2023-01-07T15:57:53.716Z,7.00
2023-01-07T16:00:22.477Z,6.90
2023-01-07T16:02:50.457Z,6.80
2023-01-07T16:05:18.348Z,6.60
2023-01-07T16:07:50.831Z,6.60
2023-01-07T16:10:26.181Z,6.50
2023-01-07T16:12:56.268Z,6.40
2023-01-07T16:15:25.576Z,6.20
2023-01-07T16:17:53.463Z,6.20
2023-01-07T16:20:22.635Z,6.10
2023-01-07T16:22:50.524Z,6.40
2023-01-07T16:25:22.818Z,6.20
2023-01-07T16:27:50.901Z,6.10
2023-01-07T16:30:20.313Z,6.10
2023-01-07T16:32:48.190Z,5.90
2023-01-07T16:35:19.440Z,5.90
2023-01-07T16:37:47.328Z,6.00
2023-01-07T16:40:23.410Z,6.10
2023-01-07T16:42:51.382Z,6.00
2023-01-07T16:45:28.438Z,5.90
2023-01-07T16:48:23.711Z,5.80
2023-01-07T16:50:53.013Z,5.70
2023-01-07T16:53:31.104Z,5.60
2023-01-07T16:56:16.363Z,5.40
2023-01-07T16:58:47.968Z,5.50
2023-01-07T17:01:18.958Z,5.50
2023-01-07T17:03:48.839Z,5.50
2023-01-07T17:06:16.813Z,5.40
2023-01-07T17:08:49.037Z,5.20
2023-01-07T17:11:21.158Z,5.20
2023-01-07T17:13:49.008Z,5.40
2023-01-07T17:16:23.490Z,5.40
2023-01-07T17:18:51.532Z,4.80
2023-01-07T17:21:39.356Z,4.80
2023-01-07T17:24:09.542Z,4.80
2023-01-07T17:26:40.842Z,5.10
2023-01-07T17:29:12.789Z,4.80
2023-01-07T17:31:42.086Z,4.70
2023-01-07T17:34:10.922Z,4.50
2023-01-07T17:36:38.795Z,4.40
2023-01-07T17:39:06.989Z,4.40
2023-01-07T17:41:53.265Z,4.40
2023-01-07T17:44:21.099Z,4.40
2023-01-07T17:46:50.355Z,4.30
2023-01-07T17:49:18.151Z,4.20
2023-01-07T17:51:46.643Z,4.10
2023-01-07T17:54:19.729Z,4.10
2023-01-07T17:56:48.323Z,4.10
2023-01-07T17:59:16.912Z,3.80
2023-01-07T18:01:45.043Z,3.90
2023-01-07T18:04:14.449Z,4.20
2023-01-07T18:06:43.487Z,4.20
2023-01-07T18:09:13.609Z,4.10
2023-01-07T18:12:00.536Z,4.50
2023-01-07T18:14:28.377Z,4.30
2023-01-07T18:16:56.282Z,4.00
2023-01-07T18:19:25.478Z,4.00
2023-01-07T18:21:53.362Z,3.90
2023-01-07T18:24:22.051Z,3.80
2023-01-07T18:26:50.164Z,3.90
2023-01-07T18:29:18.055Z,3.80
2023-01-07T18:31:45.991Z,3.80
2023-01-07T18:34:14.904Z,4.20
2023-01-07T18:36:44.165Z,3.90
2023-01-07T18:39:12.667Z,3.40
2023-01-07T18:41:41.889Z,3.40
2023-01-07T18:44:09.833Z,3.30
2023-01-07T18:46:37.637Z,3.00
2023-01-07T18:49:05.483Z,3.00
2023-01-07T18:51:33.325Z,3.10
2023-01-07T18:54:02.518Z,3.00
2023-01-07T18:56:30.412Z,3.10
2023-01-07T18:58:58.222Z,3.20
2023-01-07T19:01:26.158Z,3.10
2023-01-07T19:03:54.163Z,2.90
2023-01-07T19:06:22.096Z,2.70
2023-01-07T19:08:50.079Z,2.60
2023-01-07T19:11:19.253Z,2.60
2023-01-07T19:13:47.074Z,2.80
2023-01-07T19:16:15.050Z,2.90
2023-01-07T19:18:43.340Z,2.80
2023-01-07T19:21:12.943Z,2.80
2023-01-07T19:23:40.769Z,2.90
2023-01-07T19:26:09.561Z,2.20
2023-01-07T19:28:38.738Z,2.20
2023-01-07T19:31:07.587Z,2.10
2023-01-07T19:33:35.585Z,2.20
2023-01-07T19:36:04.221Z,2.20
2023-01-07T19:38:32.176Z,2.20
2023-01-07T19:41:01.075Z,2.00
2023-01-07T19:43:28.897Z,1.90
2023-01-07T19:45:58.219Z,2.00
2023-01-07T19:48:26.243Z,2.00
2023-01-07T19:50:55.509Z,2.00
2023-01-07T19:53:23.390Z,2.00
2023-01-07T19:55:52.058Z,1.90
2023-01-07T19:58:19.886Z,1.70
2023-01-07T20:00:47.818Z,1.70
2023-01-07T20:03:17.023Z,1.70
2023-01-07T20:05:44.885Z,1.80
2023-01-07T20:08:14.208Z,1.70
2023-01-07T20:10:42.652Z,1.80
2023-01-07T20:13:10.496Z,1.60
2023-01-07T20:15:38.322Z,1.60
2023-01-07T20:18:06.579Z,1.60
2023-01-07T20:20:35.783Z,1.40
2023-01-07T20:23:05.383Z,1.60
2023-01-07T20:25:33.210Z,1.50
2023-01-07T20:28:01.033Z,1.40
2023-01-07T20:30:28.868Z,1.50
2023-01-07T20:32:56.696Z,1.60
2023-01-07T20:35:24.643Z,1.50
2023-01-07T20:37:53.812Z,1.50
2023-01-07T20:40:21.639Z,1.50
2023-01-07T20:42:49.453Z,1.50
2023-01-07T20:45:17.468Z,1.20
2023-01-07T20:47:46.704Z,1.00
2023-01-07T20:50:15.313Z,1.00
2023-01-07T20:52:43.199Z,0.90
2023-01-07T20:55:12.474Z,1.00
2023-01-07T20:57:40.321Z,0.80
2023-01-07T21:00:09.227Z,0.80
2023-01-07T21:02:37.178Z,0.90
2023-01-07T21:05:05.669Z,0.90
2023-01-07T21:07:33.518Z,1.00
2023-01-07T21:10:01.346Z,0.90
2023-01-07T21:12:30.507Z,0.90
2023-01-07T21:14:58.373Z,0.90
2023-01-07T21:17:26.194Z,0.80
2023-01-07T21:19:54.033Z,0.80
2023-01-07T21:22:21.858Z,1.10
2023-01-07T21:24:49.687Z,0.90
2023-01-07T21:27:17.534Z,0.80
2023-01-07T21:29:46.767Z,0.80
2023-01-07T21:32:14.578Z,0.70
2023-01-07T21:34:42.384Z,0.70
2023-01-07T21:37:10.296Z,0.60
2023-01-07T21:39:39.934Z,0.60
2023-01-07T21:42:09.194Z,0.80
2023-01-07T21:44:37.203Z,0.60
2023-01-07T21:47:06.422Z,0.50
2023-01-07T21:49:34.223Z,0.50
2023-01-07T21:52:02.043Z,0.20
2023-01-07T21:54:29.846Z,0.40
2023-01-07T21:56:57.698Z,0.50
2023-01-07T21:59:25.508Z,0.70
2023-01-07T22:01:53.450Z,0.50
2023-01-07T22:04:22.691Z,0.50
2023-01-07T22:06:50.572Z,0.60
2023-01-07T22:09:18.384Z,0.40
2023-01-07T22:11:46.244Z,0.50
2023-01-07T22:14:15.325Z,0.60
2023-01-07T22:16:43.249Z,0.60
2023-01-07T22:19:11.172Z,0.50
2023-01-07T22:21:40.450Z,0.50
2023-01-07T22:24:08.425Z,0.40
2023-01-07T22:26:37.075Z,0.50
2023-01-07T22:29:05.050Z,0.50
2023-01-07T22:31:33.812Z,0.50
2023-01-07T22:34:01.629Z,0.40
2023-01-07T22:36:33.443Z,0.30
2023-01-07T22:39:03.487Z,0.30
2023-01-07T22:41:31.646Z,0.30
2023-01-07T22:43:59.556Z,0.20
2023-01-07T22:46:28.348Z,0.20
2023-01-07T22:48:56.286Z,0.10
2023-01-07T22:51:27.230Z,0.00
2023-01-07T22:53:55.783Z,0.20
2023-01-07T22:56:24.977Z,0.20
2023-01-07T22:58:52.769Z,0.50
2023-01-07T23:01:20.725Z,0.40
2023-01-07T23:03:49.143Z,0.50
2023-01-07T23:06:17.170Z,0.70
2023-01-07T23:08:45.025Z,0.50
2023-01-07T23:11:32.944Z,0.30
2023-01-07T23:14:02.230Z,0.10
2023-01-07T23:16:30.090Z,-0.10
2023-01-07T23:18:58.010Z,0.00
2023-01-07T23:21:25.816Z,0.20
2023-01-07T23:23:53.618Z,0.30
2023-01-07T23:26:21.415Z,0.00
2023-01-07T23:28:49.252Z,0.10
2023-01-07T23:31:18.462Z,0.20
2023-01-07T23:33:46.330Z,0.10
2023-01-07T23:36:14.194Z,-0.10
2023-01-07T23:38:42.072Z,0.00
2023-01-07T23:41:11.083Z,0.00
2023-01-07T23:43:39.085Z,-0.10
2023-01-07T23:46:07.841Z,0.00
2023-01-07T23:48:38.090Z,0.00
2023-01-07T23:51:06.834Z,0.00
2023-01-07T23:53:34.852Z,0.00
2023-01-07T23:56:02.736Z,0.10
2023-01-07T23:58:30.785Z,0.40
